Time;durP1;ratioP1;P1;durP2;ratioP2;P2;SDS_P1;SDS_P2;PMS_P1;PMS_P2;Temp;Humidity;BMP_temperature;BMP_pressure;BME280_temperature;BME280_humidity;BME280_pressure;Samples;Min_cycle;Max_cycle;Signal;HPM_P1;HPM_P2
2023/05/16 00:04:11;;;;;;;4.20;2.47;;;;;;;13.55;68.50;100501.03;15704572;28;20070;-50
2023/05/16 00:11:49;;;;;;;4.80;2.47;;;;;;;13.14;70.43;100513.53;15732576;28;20083;-53
2023/05/16 00:19:22;;;;;;;4.50;2.83;;;;;;;13.09;71.10;100525.00;15677019;28;20145;-54
2023/05/16 00:26:56;;;;;;;;;;;;;;;13.24;70.47;100520.03;15693866;28;20045;-53
2023/05/16 00:34:29;;;;;;;6.75;3.80;;;;;;;13.25;70.29;100518.16;15689004;28;19970;-53
2023/05/16 00:42:03;;;;;;;4.47;2.33;;;;;;;13.00;71.41;100523.69;15709673;28;20463;-56
2023/05/16 00:49:37;;;;;;;3.85;2.60;;;;;;;13.20;70.65;100536.88;15715820;28;20135;-52
2023/05/16 00:57:11;;;;;;;5.90;2.50;;;;;;;13.36;69.89;100541.59;15748079;28;20109;-53
2023/05/16 01:04:44;;;;;;;4.55;2.72;;;;;;;12.97;70.79;100546.53;15681474;28;20068;-54
2023/05/16 01:12:27;;;;;;;4.75;2.25;;;;;;;12.49;72.80;100555.50;15702295;28;20036;-50
2023/05/16 01:20:07;;;;;;;6.47;3.43;;;;;;;12.28;73.18;100558.69;15756351;28;20493;-53
2023/05/16 01:27:41;;;;;;;5.13;2.95;;;;;;;12.38;72.94;100575.09;15671872;28;20048;-53
2023/05/16 01:35:16;;;;;;;8.40;3.80;;;;;;;12.16;73.10;100596.28;15751588;28;20051;-49
2023/05/16 01:42:56;;;;;;;7.00;3.05;;;;;;;12.18;71.79;100601.44;15704432;28;20037;-48
2023/05/16 01:50:50;;;;;;;3.00;1.98;;;;;;;11.98;72.39;100617.78;15718434;28;20055;-54
2023/05/16 01:59:14;;;;;;;7.43;3.33;;;;;;;11.89;71.73;100617.28;15715119;28;20041;-48
2023/05/16 02:07:18;;;;;;;5.28;2.08;;;;;;;12.13;70.98;100637.09;15735021;28;20040;-48
2023/05/16 02:14:52;;;;;;;5.80;2.85;;;;;;;12.32;70.74;100648.69;15702890;28;20069;-49
2023/05/16 02:22:45;;;;;;;6.53;3.17;;;;;;;11.61;73.01;100646.41;15687665;28;20074;-52
2023/05/16 02:30:25;;;;;;;6.28;3.40;;;;;;;12.27;71.23;100655.78;15750937;28;20032;-48
2023/05/16 02:38:30;;;;;;;1.48;1.38;;;;;;;12.23;70.29;100671.56;15739202;28;20488;-50
2023/05/16 02:46:19;;;;;;;1.53;1.30;;;;;;;11.60;71.45;100680.53;15738069;28;20048;-48
2023/05/16 02:54:35;;;;;;;1.50;1.42;;;;;;;11.89;70.08;100691.72;15670739;28;20354;-51
2023/05/16 03:02:15;;;;;;;2.38;1.33;;;;;;;11.77;70.43;100696.97;15706018;28;20048;-55
2023/05/16 03:09:47;;;;;;;2.92;1.98;;;;;;;11.58;71.08;100706.03;15669078;28;20140;-51
2023/05/16 03:17:23;;;;;;;1.47;1.07;;;;;;;11.74;70.41;100730.50;15694149;28;20044;-50
2023/05/16 03:25:36;;;;;;;2.15;1.75;;;;;;;11.45;71.03;100723.06;15718924;28;20051;-51
2023/05/16 03:33:19;;;;;;;1.83;1.73;;;;;;;11.47;70.82;100731.72;15685091;28;20049;-52
2023/05/16 03:40:53;;;;;;;2.85;1.50;;;;;;;11.56;70.42;100733.09;15724183;28;20478;-49
2023/05/16 03:48:29;;;;;;;1.17;1.00;;;;;;;11.42;70.80;100743.13;15711901;28;20040;-55
2023/05/16 03:56:18;;;;;;;3.72;1.40;;;;;;;11.50;69.98;100742.03;15677288;28;20058;-49
2023/05/16 04:03:53;;;;;;;2.95;2.20;;;;;;;11.28;70.87;100754.97;15716964;28;20044;-51
2023/05/16 04:11:34;;;;;;;2.50;1.88;;;;;;;11.20;71.12;100776.72;15683996;28;20501;-51
2023/05/16 04:19:08;;;;;;;3.80;2.30;;;;;;;11.49;70.13;100778.03;15710838;28;20032;-51
2023/05/16 04:26:40;;;;;;;3.08;2.38;;;;;;;11.30;70.73;100790.53;15718128;28;20048;-49
2023/05/16 04:34:37;;;;;;;3.58;2.80;;;;;;;11.11;71.23;100794.94;15677174;28;20073;-51
2023/05/16 04:42:26;;;;;;;;;;;;;;;;;;;;;
2023/05/16 04:50:24;;;;;;;1.40;1.15;;;;;;;11.02;71.29;100812.34;15711761;28;20048;-49
2023/05/16 04:58:06;;;;;;;1.55;1.45;;;;;;;10.83;71.43;100818.59;15705075;28;20045;-51
2023/05/16 05:05:50;;;;;;;2.58;1.38;;;;;;;10.93;70.46;100829.72;15703313;28;20059;-53
2023/05/16 05:13:23;;;;;;;2.95;2.15;;;;;;;11.34;69.40;100850.06;15669460;28;20056;-51
2023/05/16 05:21:19;;;;;;;2.20;1.50;;;;;;;10.94;70.76;100872.47;15694792;28;20412;-49
2023/05/16 05:29:02;;;;;;;2.88;2.28;;;;;;;11.33;69.10;100868.03;15774978;28;20568;-51
2023/05/16 05:36:47;;;;;;;3.47;1.55;;;;;;;11.26;69.44;100883.34;15690786;28;20048;-56
2023/05/16 05:44:32;;;;;;;4.97;2.08;;;;;;;11.30;68.97;100903.38;15749394;28;20454;-52
2023/05/16 05:52:06;;;;;;;2.38;2.17;;;;;;;11.39;68.79;100904.81;15759074;28;20063;-52
2023/05/16 05:59:42;;;;;;;1.60;0.90;;;;;;;11.14;68.84;100912.72;15750003;28;20053;-48
2023/05/16 06:07:19;;;;;;;1.38;0.90;;;;;;;11.53;67.28;100918.22;15708972;28;20143;-51
2023/05/16 06:14:52;;;;;;;2.28;1.27;;;;;;;11.43;68.34;100907.91;15722246;28;20485;-53
2023/05/16 06:22:28;;;;;;;3.03;1.83;;;;;;;11.74;66.82;100910.66;15741194;28;20112;-51
2023/05/16 06:30:01;;;;;;;1.98;1.50;;;;;;;11.29;67.05;100915.19;15759959;28;20140;-54
2023/05/16 06:37:37;;;;;;;1.58;1.48;;;;;;;11.28;67.08;100945.75;15762560;28;20627;-52
2023/05/16 06:45:17;;;;;;;1.05;0.88;;;;;;;11.63;66.12;100956.22;15776558;28;20052;-55
2023/05/16 06:52:52;;;;;;;1.73;1.25;;;;;;;11.54;66.16;100952.94;15722443;28;20056;-53
2023/05/16 07:00:25;;;;;;;0.73;0.43;;;;;;;11.49;66.78;100976.94;15760809;28;20119;-53
2023/05/16 07:08:02;;;;;;;1.52;1.17;;;;;;;11.95;65.27;100966.06;15755810;28;20044;-49
2023/05/16 07:15:38;;;;;;;3.00;1.08;;;;;;;12.16;64.23;100980.25;15736830;28;20102;-51
2023/05/16 07:23:15;;;;;;;0.67;0.57;;;;;;;12.38;63.88;100991.50;15733288;28;20259;-49
2023/05/16 07:30:47;;;;;;;1.20;0.70;;;;;;;12.48;62.82;100983.78;15733400;28;20609;-55
2023/05/16 07:38:24;;;;;;;1.20;1.10;;;;;;;12.77;62.88;100974.25;15753773;28;20041;-53
2023/05/16 07:45:57;;;;;;;2.33;0.70;;;;;;;12.99;61.61;100980.94;15728380;28;20064;-54
2023/05/16 07:53:31;;;;;;;0.65;0.63;;;;;;;12.57;63.30;101004.03;15772646;28;20047;-56
2023/05/16 08:01:05;;;;;;;0.40;0.20;;;;;;;12.42;62.95;101006.19;15765263;28;20459;-53
2023/05/16 08:08:39;;;;;;;1.67;0.68;;;;;;;12.53;62.90;101018.97;15739758;28;20531;-56
2023/05/16 08:16:16;;;;;;;0.47;0.38;;;;;;;12.20;63.80;101041.50;15734278;28;20064;-55
2023/05/16 08:23:51;;;;;;;1.30;0.52;;;;;;;12.49;62.99;101032.03;15718179;28;20083;-51
2023/05/16 08:31:23;;;;;;;0.40;0.40;;;;;;;12.47;63.18;101031.44;15731792;28;20401;-50
2023/05/16 08:39:00;;;;;;;0.40;0.40;;;;;;;12.61;62.92;101037.56;15731285;28;20390;-51
2023/05/16 08:46:34;;;;;;;0.75;0.57;;;;;;;12.35;63.44;101029.63;15738648;28;20044;-51
2023/05/16 08:54:13;;;;;;;0.28;0.15;;;;;;;12.23;64.28;101041.06;15755245;28;20547;-48
2023/05/16 09:01:48;;;;;;;0.90;0.75;;;;;;;12.69;63.50;101033.81;15748199;28;20153;-52
2023/05/16 09:09:23;;;;;;;2.53;0.85;;;;;;;12.14;64.33;101047.72;15751166;28;20047;-52
2023/05/16 09:17:06;;;;;;;0.55;0.28;;;;;;;12.53;63.33;101053.97;15740725;28;20048;-58
2023/05/16 09:24:47;;;;;;;0.75;0.32;;;;;;;12.22;64.69;101060.97;15752343;28;20044;-51
2023/05/16 09:32:19;;;;;;;0.68;0.45;;;;;;;12.33;63.51;101072.09;15726343;28;20056;-52
2023/05/16 09:39:54;;;;;;;0.20;0.10;;;;;;;12.48;63.00;101072.63;15740673;28;20432;-50
2023/05/16 09:47:30;;;;;;;0.10;0.10;;;;;;;12.63;62.87;101089.31;15708915;28;20439;-55
2023/05/16 09:55:07;;;;;;;0.63;0.63;;;;;;;12.70;62.98;101094.69;15747193;28;20048;-55
2023/05/16 10:02:41;;;;;;;0.00;0.00;;;;;;;12.73;62.59;101086.19;15759919;28;20121;-53
2023/05/16 10:10:17;;;;;;;0.43;0.40;;;;;;;12.59;62.77;101080.06;15763314;28;20089;-52
2023/05/16 10:17:52;;;;;;;0.10;0.10;;;;;;;12.71;61.75;101082.88;15766981;28;20123;-55
2023/05/16 10:25:32;;;;;;;0.40;0.20;;;;;;;12.79;60.19;101087.19;15713345;28;20040;-50
2023/05/16 10:33:05;;;;;;;3.90;0.77;;;;;;;13.17;59.73;101085.28;15775082;28;20134;-53
2023/05/16 10:40:40;;;;;;;;;;;;;;;13.99;57.60;101098.69;15749830;28;20139;-52
2023/05/16 10:48:14;;;;;;;0.08;0.08;;;;;;;14.54;56.24;101098.66;15759141;28;19920;-53
2023/05/16 10:56:12;;;;;;;0.30;0.30;;;;;;;14.08;57.02;101091.09;15765017;28;20334;-54
2023/05/16 11:04:15;;;;;;;3.03;0.77;;;;;;;13.96;57.00;101101.81;15754522;28;20223;-54
2023/05/16 11:11:55;;;;;;;0.35;0.17;;;;;;;13.81;57.12;101112.97;15670463;28;20155;-53
2023/05/16 11:19:33;;;;;;;0.32;0.32;;;;;;;13.64;57.10;101112.72;15744511;28;20072;-53
2023/05/16 11:27:07;;;;;;;1.75;0.80;;;;;;;13.72;56.55;101138.59;15706624;28;20132;-53
2023/05/16 11:34:42;;;;;;;5.78;0.55;;;;;;;13.39;57.35;101136.16;15735879;28;20044;-56
2023/05/16 11:42:16;;;;;;;0.20;0.10;;;;;;;13.07;58.02;101138.84;15785919;28;20077;-53
2023/05/16 11:49:49;;;;;;;0.47;0.43;;;;;;;13.18;56.09;101134.59;15722091;28;20102;-55
2023/05/16 11:57:32;;;;;;;0.03;0.03;;;;;;;13.68;54.63;101146.28;15760375;28;20144;-52
2023/05/16 12:05:09;;;;;;;0.10;0.10;;;;;;;14.03;54.14;101134.94;15713361;28;20067;-54
2023/05/16 12:12:46;;;;;;;0.50;0.28;;;;;;;16.38;48.84;101127.53;15784211;28;20048;-53
2023/05/16 12:20:24;;;;;;;0.22;0.22;;;;;;;16.29;46.61;101127.91;15753601;28;20041;-54
2023/05/16 12:28:02;;;;;;;0.15;0.10;;;;;;;15.95;46.02;101126.91;15774214;28;20040;-55
2023/05/16 12:35:37;;;;;;;0.45;0.40;;;;;;;15.51;46.49;101141.78;15768396;28;20411;-50
2023/05/16 12:43:15;;;;;;;0.70;0.52;;;;;;;16.14;44.14;101140.31;15732624;28;20054;-56
2023/05/16 12:50:50;;;;;;;0.28;0.28;;;;;;;18.02;42.22;101123.94;15740485;28;20151;-54
2023/05/16 12:58:25;;;;;;;0.00;0.00;;;;;;;17.57;42.17;101120.25;15773298;28;20457;-57
2023/05/16 13:05:58;;;;;;;3.92;0.20;;;;;;;17.42;41.83;101117.28;15765484;28;20036;-56
2023/05/16 13:13:32;;;;;;;0.10;0.10;;;;;;;16.63;42.85;101106.34;15755689;28;20071;-54
2023/05/16 13:21:06;;;;;;;0.13;0.13;;;;;;;17.49;40.61;101098.97;15751617;28;20080;-55
2023/05/16 13:28:40;;;;;;;0.55;0.30;;;;;;;17.06;41.17;101103.13;15715009;22;20492;-54
2023/05/16 13:36:15;;;;;;;0.30;0.30;;;;;;;16.92;39.52;101098.25;15673785;28;20045;-56
2023/05/16 13:43:49;;;;;;;0.00;0.00;;;;;;;16.69;42.42;101124.34;15691372;28;20056;-55
2023/05/16 13:51:22;;;;;;;0.10;0.10;;;;;;;16.77;43.77;101134.03;15693178;28;20045;-55
2023/05/16 13:58:56;;;;;;;;;;;;;;;16.53;42.32;101101.56;15703457;28;20108;-52
2023/05/16 14:06:30;;;;;;;2.05;0.55;;;;;;;16.97;39.91;101122.75;15706841;28;19924;-57
2023/05/16 14:14:15;;;;;;;0.45;0.25;;;;;;;16.99;40.99;101123.34;15712842;28;20072;-54
2023/05/16 14:21:48;;;;;;;0.63;0.17;;;;;;;16.49;37.66;101140.22;15662055;28;20257;-53
2023/05/16 14:29:23;;;;;;;;;;;;;;;16.88;38.94;101129.63;15669222;28;20565;-55
2023/05/16 14:36:55;;;;;;;0.70;0.43;;;;;;;17.11;38.71;101140.34;15687216;28;19964;-53
2023/05/16 14:44:31;;;;;;;0.10;0.10;;;;;;;17.60;39.46;101140.66;15689248;28;20494;-52
2023/05/16 14:52:05;;;;;;;0.00;0.00;;;;;;;17.04;37.94;101137.00;15680122;28;20099;-51
2023/05/16 14:59:39;;;;;;;0.00;0.00;;;;;;;16.87;37.12;101119.84;15683568;28;20036;-50
2023/05/16 15:07:12;;;;;;;1.75;0.30;;;;;;;16.77;38.30;101117.75;15676996;28;20277;-53
2023/05/16 15:14:48;;;;;;;2.00;0.20;;;;;;;17.41;35.88;101115.66;15696350;28;20135;-55
2023/05/16 15:22:23;;;;;;;0.32;0.32;;;;;;;17.12;32.80;101117.63;15654475;28;20099;-55
2023/05/16 15:29:57;;;;;;;0.60;0.50;;;;;;;16.77;34.17;101126.72;15673047;28;20106;-53
2023/05/16 15:37:30;;;;;;;0.00;0.00;;;;;;;16.62;32.09;101131.00;15703782;28;20044;-52
2023/05/16 15:45:05;;;;;;;0.00;0.00;;;;;;;16.96;32.89;101134.66;15694798;28;20528;-52
2023/05/16 15:52:38;;;;;;;0.17;0.17;;;;;;;16.40;34.20;101136.22;15658532;28;20045;-51
2023/05/16 16:00:15;;;;;;;1.10;0.40;;;;;;;16.74;34.28;101127.22;15734263;28;20059;-57
2023/05/16 16:07:48;;;;;;;0.00;0.00;;;;;;;16.96;33.92;101138.19;15704250;28;20123;-53
2023/05/16 16:15:22;;;;;;;0.00;0.00;;;;;;;16.54;34.62;101143.84;15663020;28;20036;-52
2023/05/16 16:22:55;;;;;;;0.10;0.10;;;;;;;16.42;36.18;101147.69;15714353;28;20043;-54
2023/05/16 16:30:32;;;;;;;0.00;0.00;;;;;;;16.04;34.36;101141.72;15699876;28;20037;-52
2023/05/16 16:38:05;;;;;;;0.55;0.30;;;;;;;16.04;34.71;101138.16;15666485;28;20104;-53
2023/05/16 16:45:39;;;;;;;0.10;0.00;;;;;;;16.42;36.33;101128.72;15678049;28;20045;-53
2023/05/16 16:53:12;;;;;;;0.00;0.00;;;;;;;16.24;35.35;101125.09;15697388;28;20046;-56
2023/05/16 17:00:47;;;;;;;0.05;0.05;;;;;;;15.79;34.57;101119.47;15676742;28;20091;-53
2023/05/16 17:08:21;;;;;;;0.00;0.00;;;;;;;16.18;35.18;101127.91;15714672;28;20049;-55
2023/05/16 17:15:55;;;;;;;0.00;0.00;;;;;;;15.33;36.06;101134.56;15718540;28;20522;-55
2023/05/16 17:23:31;;;;;;;0.35;0.20;;;;;;;14.90;35.97;101151.00;15678427;28;20072;-53
2023/05/16 17:31:05;;;;;;;0.13;0.13;;;;;;;15.28;36.89;101148.78;15676327;28;20428;-54
2023/05/16 17:38:40;;;;;;;0.00;0.00;;;;;;;14.80;38.56;101165.88;15635635;28;20048;-52
2023/05/16 17:46:14;;;;;;;0.10;0.00;;;;;;;14.98;36.88;101180.44;15694684;28;20120;-55
2023/05/16 17:53:50;;;;;;;0.00;0.00;;;;;;;15.27;37.72;101184.19;15715485;28;20124;-54
2023/05/16 18:01:24;;;;;;;0.00;0.00;;;;;;;14.97;37.36;101201.22;15696092;28;20485;-56
2023/05/16 18:08:57;;;;;;;0.15;0.15;;;;;;;14.45;37.55;101213.44;15675940;28;20127;-56
2023/05/16 18:16:33;;;;;;;0.85;0.05;;;;;;;14.46;37.61;101231.31;15678189;28;20288;-55
2023/05/16 18:24:07;;;;;;;0.10;0.05;;;;;;;14.31;38.44;101237.06;15689134;28;20472;-55
2023/05/16 18:31:41;;;;;;;0.25;0.25;;;;;;;14.54;37.69;101245.38;15721601;28;20127;-54
2023/05/16 18:39:14;;;;;;;0.00;0.00;;;;;;;13.99;38.67;101247.94;15686509;28;20123;-54
2023/05/16 18:46:49;;;;;;;6.17;0.97;;;;;;;13.63;40.17;101255.91;15690015;28;20056;-56
2023/05/16 18:54:22;;;;;;;0.00;0.00;;;;;;;13.64;41.12;101271.03;15707302;28;20311;-56
2023/05/16 19:01:56;;;;;;;0.00;0.00;;;;;;;13.44;41.31;101281.94;15718783;28;20037;-53
2023/05/16 19:09:29;;;;;;;0.20;0.20;;;;;;;13.66;41.63;101310.25;15667883;28;20045;-54
2023/05/16 19:17:03;;;;;;;0.10;0.10;;;;;;;13.06;41.92;101320.44;15709413;28;20037;-54
2023/05/16 19:24:36;;;;;;;0.17;0.10;;;;;;;12.89;41.70;101333.53;15724482;28;20136;-53
2023/05/16 19:32:13;;;;;;;0.00;0.00;;;;;;;12.61;41.96;101349.97;15696553;28;20303;-54
2023/05/16 19:39:50;;;;;;;1.40;0.25;;;;;;;12.65;42.32;101361.16;15685076;28;20041;-54
2023/05/16 19:47:25;;;;;;;0.10;0.10;;;;;;;12.61;43.37;101371.50;15711405;28;20037;-55
2023/05/16 19:55:00;;;;;;;0.00;0.00;;;;;;;12.29;44.38;101386.63;15726085;28;20053;-54
2023/05/16 20:02:35;;;;;;;1.70;0.17;;;;;;;11.92;45.66;101396.91;15688920;28;20064;-54
2023/05/16 20:10:09;;;;;;;0.10;0.10;;;;;;;11.96;45.31;101400.84;15682050;28;20502;-50
2023/05/16 20:17:44;;;;;;;2.17;0.57;;;;;;;11.60;46.03;101394.91;15687945;28;20048;-53
2023/05/16 20:25:17;;;;;;;0.47;0.28;;;;;;;11.91;44.63;101391.72;15678158;28;20533;-51
2023/05/16 20:32:51;;;;;;;0.57;0.20;;;;;;;11.21;46.00;101386.44;15681800;28;20443;-51
2023/05/16 20:40:24;;;;;;;0.10;0.10;;;;;;;11.78;46.25;101391.66;15690151;28;20043;-50
2023/05/16 20:47:59;;;;;;;0.20;0.20;;;;;;;11.49;46.92;101396.31;15632375;28;20050;-52
2023/05/16 20:55:32;;;;;;;0.35;0.10;;;;;;;11.32;47.06;101390.41;15691296;28;20040;-51
2023/05/16 21:03:06;;;;;;;;;;;;;;;11.02;47.56;101397.91;15662692;28;20095;-51
2023/05/16 21:10:39;;;;;;;1.00;0.52;;;;;;;10.72;47.91;101400.81;15669746;28;20289;-55
2023/05/16 21:18:13;;;;;;;0.00;0.00;;;;;;;10.76;48.50;101411.97;15651570;28;20102;-53
2023/05/16 21:25:47;;;;;;;0.80;0.30;;;;;;;10.91;47.97;101415.41;15636755;28;20581;-53
2023/05/16 21:33:21;;;;;;;0.20;0.20;;;;;;;10.41;48.77;101427.19;15662321;28;20477;-52
2023/05/16 21:40:56;;;;;;;0.00;0.00;;;;;;;10.37;49.13;101426.72;15695585;28;20268;-52
2023/05/16 21:48:33;;;;;;;0.10;0.10;;;;;;;10.08;49.51;101427.66;15685819;28;20388;-53
2023/05/16 21:56:06;;;;;;;0.25;0.00;;;;;;;9.80;50.09;101392.69;15690879;28;20251;-50
2023/05/16 22:03:47;;;;;;;0.00;0.00;;;;;;;9.70;51.00;101433.19;15693025;28;20048;-50
2023/05/16 22:11:34;;;;;;;0.00;0.00;;;;;;;10.10;51.10;101438.16;15680738;28;20048;-52
2023/05/16 22:19:08;;;;;;;0.30;0.30;;;;;;;9.86;51.05;101437.50;15717903;28;20049;-50
2023/05/16 22:26:46;;;;;;;3.60;0.80;;;;;;;9.75;51.39;101451.41;15687837;28;20064;-51
2023/05/16 22:34:32;;;;;;;0.07;0.07;;;;;;;9.60;51.90;101448.72;15720363;28;20043;-52
2023/05/16 22:42:08;;;;;;;0.85;0.32;;;;;;;9.62;52.17;101443.19;15690717;28;20089;-53
2023/05/16 22:49:45;;;;;;;0.32;0.25;;;;;;;9.55;52.53;101451.13;15672081;28;20044;-52
2023/05/16 22:57:18;;;;;;;0.47;0.00;;;;;;;9.30;53.14;101455.13;15699639;28;20056;-52
2023/05/16 23:04:54;;;;;;;0.10;0.10;;;;;;;8.54;54.32;101470.38;15663590;28;20051;-50
2023/05/16 23:12:27;;;;;;;0.73;0.32;;;;;;;8.63;55.47;101462.09;15660455;28;20053;-51
2023/05/16 23:20:02;;;;;;;0.35;0.35;;;;;;;8.62;55.21;101471.13;15700608;28;20513;-51
2023/05/16 23:27:35;;;;;;;0.28;0.20;;;;;;;8.47;55.86;101464.06;15683673;28;20040;-53
2023/05/16 23:35:12;;;;;;;1.60;0.80;;;;;;;8.70;55.65;101470.25;15700210;28;20045;-53
2023/05/16 23:42:47;;;;;;;0.35;0.35;;;;;;;8.45;56.57;101472.28;15689680;28;20041;-53
2023/05/16 23:50:22;;;;;;;0.60;0.52;;;;;;;8.51;57.15;101484.09;15684893;28;20134;-50
2023/05/16 23:57:55;;;;;;;0.98;0.55;;;;;;;8.30;58.34;101482.88;15682890;28;20132;-57
